sensor_id;sensor_type;location;lat;lon;timestamp;pressure;altitude;pressure_sealevel;temperature;humidity
21236;BME280;10775;42.678;26.324;2023-04-10T00:00:05;98798.28;;;8.16;80.38
21236;BME280;10775;42.678;26.324;2023-04-10T00:02:31;98800.25;;;7.86;82.10
21236;BME280;10775;42.678;26.324;2023-04-10T00:04:58;98783.59;;;8.09;85.34
21236;BME280;10775;42.678;26.324;2023-04-10T00:07:23;98785.34;;;8.08;84.06
21236;BME280;10775;42.678;26.324;2023-04-10T00:09:49;98789.72;;;8.03;85.16
21236;BME280;10775;42.678;26.324;2023-04-10T00:12:14;98784.53;;;7.98;85.25
21236;BME280;10775;42.678;26.324;2023-04-10T00:14:40;98787.28;;;7.77;79.58
21236;BME280;10775;42.678;26.324;2023-04-10T00:17:06;98773.34;;;7.89;85.74
21236;BME280;10775;42.678;26.324;2023-04-10T00:19:32;98761.91;;;8.06;86.82
21236;BME280;10775;42.678;26.324;2023-04-10T00:21:58;98762.78;;;8.02;79.63
21236;BME280;10775;42.678;26.324;2023-04-10T00:24:23;98763.91;;;7.72;83.57
21236;BME280;10775;42.678;26.324;2023-04-10T00:26:49;98780.25;;;7.93;85.34
21236;BME280;10775;42.678;26.324;2023-04-10T00:29:14;98760.94;;;8.15;85.59
21236;BME280;10775;42.678;26.324;2023-04-10T00:31:40;98757.72;;;7.87;83.60
21236;BME280;10775;42.678;26.324;2023-04-10T00:34:05;98755.97;;;7.89;83.99
21236;BME280;10775;42.678;26.324;2023-04-10T00:36:31;98763.13;;;7.58;81.45
21236;BME280;10775;42.678;26.324;2023-04-10T00:38:57;98762.16;;;7.71;86.69
21236;BME280;10775;42.678;26.324;2023-04-10T00:41:24;98751.75;;;7.73;87.05
21236;BME280;10775;42.678;26.324;2023-04-10T00:43:54;98742.97;;;7.86;87.92
21236;BME280;10775;42.678;26.324;2023-04-10T00:46:20;98742.84;;;8.03;87.53
21236;BME280;10775;42.678;26.324;2023-04-10T00:48:46;98741.06;;;8.08;86.57
21236;BME280;10775;42.678;26.324;2023-04-10T00:51:11;98726.28;;;8.13;86.11
21236;BME280;10775;42.678;26.324;2023-04-10T00:53:37;98729.84;;;8.01;85.46
21236;BME280;10775;42.678;26.324;2023-04-10T00:56:03;98720.44;;;7.85;84.77
21236;BME280;10775;42.678;26.324;2023-04-10T00:58:28;98724.06;;;7.61;82.74
21236;BME280;10775;42.678;26.324;2023-04-10T01:00:54;98731.09;;;7.54;86.13
21236;BME280;10775;42.678;26.324;2023-04-10T01:03:20;98724.00;;;7.75;87.81
21236;BME280;10775;42.678;26.324;2023-04-10T01:08:53;98726.75;;;7.55;88.13
21236;BME280;10775;42.678;26.324;2023-04-10T01:14:29;98728.59;;;7.37;87.16
21236;BME280;10775;42.678;26.324;2023-04-10T01:17:07;98727.72;;;7.37;84.92
21236;BME280;10775;42.678;26.324;2023-04-10T01:22:27;98728.53;;;7.44;88.14
21236;BME280;10775;42.678;26.324;2023-04-10T01:30:40;98719.91;;;7.35;89.66
21236;BME280;10775;42.678;26.324;2023-04-10T01:33:08;98730.31;;;7.35;86.79
21236;BME280;10775;42.678;26.324;2023-04-10T01:35:37;98737.25;;;7.38;87.06
21236;BME280;10775;42.678;26.324;2023-04-10T01:38:05;98733.91;;;7.19;87.97
21236;BME280;10775;42.678;26.324;2023-04-10T01:40:31;98730.34;;;7.31;89.27
21236;BME280;10775;42.678;26.324;2023-04-10T01:42:59;98725.97;;;7.36;87.16
21236;BME280;10775;42.678;26.324;2023-04-10T01:45:27;98735.69;;;7.09;87.04
21236;BME280;10775;42.678;26.324;2023-04-10T01:47:56;98733.91;;;7.14;89.21
21236;BME280;10775;42.678;26.324;2023-04-10T01:50:22;98725.16;;;7.34;88.42
21236;BME280;10775;42.678;26.324;2023-04-10T01:52:50;98726.91;;;7.27;86.61
21236;BME280;10775;42.678;26.324;2023-04-10T01:55:19;98730.41;;;7.26;89.42
21236;BME280;10775;42.678;26.324;2023-04-10T01:57:45;98733.09;;;7.11;87.76
21236;BME280;10775;42.678;26.324;2023-04-10T02:00:14;98725.25;;;7.14;90.87
21236;BME280;10775;42.678;26.324;2023-04-10T02:02:40;98724.25;;;7.35;88.60
21236;BME280;10775;42.678;26.324;2023-04-10T02:05:07;98714.81;;;7.20;86.32
21236;BME280;10775;42.678;26.324;2023-04-10T02:12:45;98721.03;;;6.91;84.18
21236;BME280;10775;42.678;26.324;2023-04-10T02:15:13;98724.53;;;6.86;90.18
21236;BME280;10775;42.678;26.324;2023-04-10T02:17:41;98720.03;;;7.17;91.05
21236;BME280;10775;42.678;26.324;2023-04-10T02:20:07;98722.53;;;7.31;89.48
21236;BME280;10775;42.678;26.324;2023-04-10T02:22:34;98701.69;;;7.38;88.57
21236;BME280;10775;42.678;26.324;2023-04-10T02:25:03;98710.50;;;7.19;86.76
21236;BME280;10775;42.678;26.324;2023-04-10T02:27:32;98716.50;;;7.29;89.55
21236;BME280;10775;42.678;26.324;2023-04-10T02:29:57;98713.16;;;7.07;85.77
21236;BME280;10775;42.678;26.324;2023-04-10T02:32:23;98721.88;;;6.98;87.68
21236;BME280;10775;42.678;26.324;2023-04-10T02:34:49;98704.47;;;7.08;86.68
21236;BME280;10775;42.678;26.324;2023-04-10T02:37:14;98705.44;;;6.96;87.52
21236;BME280;10775;42.678;26.324;2023-04-10T02:39:41;98715.75;;;7.08;88.64
21236;BME280;10775;42.678;26.324;2023-04-10T02:42:06;98720.13;;;7.02;87.95
21236;BME280;10775;42.678;26.324;2023-04-10T02:44:31;98700.97;;;7.19;90.64
21236;BME280;10775;42.678;26.324;2023-04-10T02:46:57;98692.97;;;7.47;89.75
21236;BME280;10775;42.678;26.324;2023-04-10T02:49:22;98687.78;;;7.47;88.33
21236;BME280;10775;42.678;26.324;2023-04-10T02:51:48;98696.53;;;7.31;87.80
21236;BME280;10775;42.678;26.324;2023-04-10T02:54:13;98700.94;;;7.24;87.59
21236;BME280;10775;42.678;26.324;2023-04-10T02:56:39;98696.56;;;7.28;87.83
21236;BME280;10775;42.678;26.324;2023-04-10T02:59:04;98699.19;;;7.26;88.03
21236;BME280;10775;42.678;26.324;2023-04-10T03:01:30;98697.44;;;7.31;88.10
21236;BME280;10775;42.678;26.324;2023-04-10T03:03:56;98697.31;;;7.47;88.87
21236;BME280;10775;42.678;26.324;2023-04-10T03:06:22;98697.31;;;7.44;85.12
21236;BME280;10775;42.678;26.324;2023-04-10T03:08:51;98693.91;;;7.37;87.80
21236;BME280;10775;42.678;26.324;2023-04-10T03:11:16;98687.75;;;7.50;88.14
21236;BME280;10775;42.678;26.324;2023-04-10T03:13:42;98686.78;;;7.59;87.85
21236;BME280;10775;42.678;26.324;2023-04-10T03:16:07;98674.63;;;7.61;86.85
21236;BME280;10775;42.678;26.324;2023-04-10T03:18:33;98682.47;;;7.59;85.70
21236;BME280;10775;42.678;26.324;2023-04-10T03:20:59;98679.84;;;7.61;84.02
21236;BME280;10775;42.678;26.324;2023-04-10T03:23:26;98682.34;;;7.73;81.37
21236;BME280;10775;42.678;26.324;2023-04-10T03:25:51;98682.97;;;8.01;82.74
21236;BME280;10775;42.678;26.324;2023-04-10T03:28:21;98675.97;;;8.08;79.61
21236;BME280;10775;42.678;26.324;2023-04-10T03:30:47;98682.97;;;8.00;79.79
21236;BME280;10775;42.678;26.324;2023-04-10T03:33:12;98674.31;;;7.99;80.85
21236;BME280;10775;42.678;26.324;2023-04-10T03:35:38;98677.69;;;8.07;79.33
21236;BME280;10775;42.678;26.324;2023-04-10T03:38:03;98676.72;;;8.18;77.46
21236;BME280;10775;42.678;26.324;2023-04-10T03:40:29;98679.19;;;8.30;78.48
21236;BME280;10775;42.678;26.324;2023-04-10T03:42:55;98675.66;;;8.39;77.38
21236;BME280;10775;42.678;26.324;2023-04-10T03:45:20;98675.56;;;8.48;77.15
21236;BME280;10775;42.678;26.324;2023-04-10T03:47:46;98682.44;;;8.55;78.01
21236;BME280;10775;42.678;26.324;2023-04-10T03:50:11;98689.22;;;8.68;78.09
21236;BME280;10775;42.678;26.324;2023-04-10T03:52:37;98677.97;;;8.63;76.87
21236;BME280;10775;42.678;26.324;2023-04-10T03:55:03;98675.34;;;8.66;76.29
21236;BME280;10775;42.678;26.324;2023-04-10T03:57:28;98680.63;;;8.60;73.20
21236;BME280;10775;42.678;26.324;2023-04-10T03:59:54;98683.09;;;8.71;76.74
21236;BME280;10775;42.678;26.324;2023-04-10T04:02:19;98683.94;;;8.71;75.12
21236;BME280;10775;42.678;26.324;2023-04-10T04:04:45;98687.50;;;8.66;75.04
21236;BME280;10775;42.678;26.324;2023-04-10T04:07:10;98687.72;;;8.49;74.45
21236;BME280;10775;42.678;26.324;2023-04-10T04:09:37;98685.00;;;8.58;76.30
21236;BME280;10775;42.678;26.324;2023-04-10T04:12:03;98694.47;;;8.65;76.78
21236;BME280;10775;42.678;26.324;2023-04-10T04:14:28;98688.28;;;8.74;75.87
21236;BME280;10775;42.678;26.324;2023-04-10T04:16:54;98688.97;;;8.87;78.04
21236;BME280;10775;42.678;26.324;2023-04-10T04:19:19;98680.19;;;8.96;77.22
21236;BME280;10775;42.678;26.324;2023-04-10T04:21:45;98687.97;;;8.97;76.79
21236;BME280;10775;42.678;26.324;2023-04-10T04:24:10;98689.03;;;8.84;75.66
21236;BME280;10775;42.678;26.324;2023-04-10T04:26:36;98685.47;;;8.91;78.02
21236;BME280;10775;42.678;26.324;2023-04-10T04:29:01;98682.75;;;8.97;77.94
21236;BME280;10775;42.678;26.324;2023-04-10T04:31:27;98690.53;;;9.03;77.98
21236;BME280;10775;42.678;26.324;2023-04-10T04:33:59;98688.75;;;9.05;77.34
21236;BME280;10775;42.678;26.324;2023-04-10T04:36:26;98685.16;;;9.14;77.11
21236;BME280;10775;42.678;26.324;2023-04-10T04:38:52;98689.44;;;9.18;75.69
21236;BME280;10775;42.678;26.324;2023-04-10T04:41:17;98683.16;;;9.30;75.83
21236;BME280;10775;42.678;26.324;2023-04-10T04:43:44;98686.50;;;9.40;75.05
21236;BME280;10775;42.678;26.324;2023-04-10T04:46:10;98682.88;;;9.50;75.54
21236;BME280;10775;42.678;26.324;2023-04-10T04:48:35;98674.19;;;9.49;74.92
21236;BME280;10775;42.678;26.324;2023-04-10T04:51:00;98675.09;;;9.47;75.41
21236;BME280;10775;42.678;26.324;2023-04-10T04:53:26;98668.84;;;9.55;75.34
21236;BME280;10775;42.678;26.324;2023-04-10T04:55:51;98668.72;;;9.65;74.50
21236;BME280;10775;42.678;26.324;2023-04-10T04:58:17;98670.44;;;9.66;73.21
21236;BME280;10775;42.678;26.324;2023-04-10T05:00:42;98677.41;;;9.65;74.42
21236;BME280;10775;42.678;26.324;2023-04-10T05:03:08;98672.13;;;9.70;73.89
21236;BME280;10775;42.678;26.324;2023-04-10T05:05:33;98686.81;;;9.77;73.29
21236;BME280;10775;42.678;26.324;2023-04-10T05:07:59;98680.56;;;9.84;73.55
21236;BME280;10775;42.678;26.324;2023-04-10T05:10:25;98681.34;;;9.89;73.53
21236;BME280;10775;42.678;26.324;2023-04-10T05:12:50;98675.13;;;9.96;72.58
21236;BME280;10775;42.678;26.324;2023-04-10T05:15:16;98676.09;;;9.92;72.63
21236;BME280;10775;42.678;26.324;2023-04-10T05:17:41;98674.34;;;9.91;73.05
21236;BME280;10775;42.678;26.324;2023-04-10T05:20:07;98684.66;;;9.99;72.61
21236;BME280;10775;42.678;26.324;2023-04-10T05:22:32;98679.44;;;9.99;72.07
21236;BME280;10775;42.678;26.324;2023-04-10T05:24:58;98668.94;;;10.02;72.07
21236;BME280;10775;42.678;26.324;2023-04-10T05:27:24;98682.13;;;9.96;71.95
21236;BME280;10775;42.678;26.324;2023-04-10T05:29:49;98684.66;;;9.99;72.20
21236;BME280;10775;42.678;26.324;2023-04-10T05:32:15;98683.75;;;10.01;72.42
21236;BME280;10775;42.678;26.324;2023-04-10T05:34:40;98683.69;;;10.05;71.47
21236;BME280;10775;42.678;26.324;2023-04-10T05:37:05;98690.59;;;10.09;71.45
21236;BME280;10775;42.678;26.324;2023-04-10T05:39:31;98686.00;;;10.21;70.81
21236;BME280;10775;42.678;26.324;2023-04-10T05:41:56;98692.03;;;10.25;70.88
21236;BME280;10775;42.678;26.324;2023-04-10T05:44:22;98696.06;;;10.44;71.49
21236;BME280;10775;42.678;26.324;2023-04-10T05:46:48;98712.06;;;10.74;72.45
21236;BME280;10775;42.678;26.324;2023-04-10T05:49:14;98710.66;;;11.00;71.54
21236;BME280;10775;42.678;26.324;2023-04-10T05:51:39;98697.06;;;11.23;71.83
21236;BME280;10775;42.678;26.324;2023-04-10T05:54:05;98694.91;;;11.01;68.44
21236;BME280;10775;42.678;26.324;2023-04-10T05:56:30;98703.56;;;11.05;72.21
21236;BME280;10775;42.678;26.324;2023-04-10T05:58:55;98712.13;;;11.12;66.92
21236;BME280;10775;42.678;26.324;2023-04-10T06:01:21;98704.84;;;11.27;70.03
21236;BME280;10775;42.678;26.324;2023-04-10T06:03:46;98691.09;;;11.55;73.89
21236;BME280;10775;42.678;26.324;2023-04-10T06:06:12;98703.69;;;11.75;68.21
21236;BME280;10775;42.678;26.324;2023-04-10T06:08:37;98704.72;;;11.69;67.57
21236;BME280;10775;42.678;26.324;2023-04-10T06:11:03;98707.63;;;11.57;71.25
21236;BME280;10775;42.678;26.324;2023-04-10T06:13:28;98718.38;;;11.45;73.07
21236;BME280;10775;42.678;26.324;2023-04-10T06:15:54;98711.09;;;11.58;75.58
21236;BME280;10775;42.678;26.324;2023-04-10T06:18:20;98715.88;;;11.78;75.82
21236;BME280;10775;42.678;26.324;2023-04-10T06:20:45;98721.59;;;11.95;74.37
21236;BME280;10775;42.678;26.324;2023-04-10T06:23:12;98717.84;;;12.05;74.17
21236;BME280;10775;42.678;26.324;2023-04-10T06:25:38;98706.38;;;11.73;75.18
21236;BME280;10775;42.678;26.324;2023-04-10T06:28:03;98707.66;;;11.93;70.07
21236;BME280;10775;42.678;26.324;2023-04-10T06:30:29;98713.91;;;11.89;66.25
21236;BME280;10775;42.678;26.324;2023-04-10T06:32:55;98708.25;;;11.68;63.36
21236;BME280;10775;42.678;26.324;2023-04-10T06:35:20;98708.44;;;12.31;76.32
21236;BME280;10775;42.678;26.324;2023-04-10T06:37:47;98713.59;;;12.67;68.16
21236;BME280;10775;42.678;26.324;2023-04-10T06:40:13;98710.44;;;12.85;71.90
21236;BME280;10775;42.678;26.324;2023-04-10T06:42:38;98719.09;;;12.25;61.28
21236;BME280;10775;42.678;26.324;2023-04-10T06:45:06;98717.03;;;12.36;71.72
21236;BME280;10775;42.678;26.324;2023-04-10T06:47:31;98717.50;;;12.83;75.22
21236;BME280;10775;42.678;26.324;2023-04-10T06:49:57;98727.13;;;12.51;65.22
21236;BME280;10775;42.678;26.324;2023-04-10T06:52:22;98716.13;;;12.37;74.19
21236;BME280;10775;42.678;26.324;2023-04-10T06:54:48;98727.19;;;12.15;63.16
21236;BME280;10775;42.678;26.324;2023-04-10T06:57:13;98726.53;;;11.70;62.14
21236;BME280;10775;42.678;26.324;2023-04-10T06:59:40;98726.59;;;11.67;65.33
21236;BME280;10775;42.678;26.324;2023-04-10T07:02:06;98743.41;;;11.58;67.10
21236;BME280;10775;42.678;26.324;2023-04-10T07:04:32;98732.19;;;11.51;65.17
21236;BME280;10775;42.678;26.324;2023-04-10T07:06:57;98745.31;;;11.50;68.35
21236;BME280;10775;42.678;26.324;2023-04-10T07:09:25;98754.91;;;11.51;66.13
21236;BME280;10775;42.678;26.324;2023-04-10T07:11:51;98747.41;;;11.34;65.59
21236;BME280;10775;42.678;26.324;2023-04-10T07:14:17;98744.41;;;11.12;63.36
21236;BME280;10775;42.678;26.324;2023-04-10T07:16:43;98747.31;;;10.98;64.78
21236;BME280;10775;42.678;26.324;2023-04-10T07:19:08;98747.44;;;10.92;64.86
21236;BME280;10775;42.678;26.324;2023-04-10T07:21:33;98752.44;;;11.04;71.57
21236;BME280;10775;42.678;26.324;2023-04-10T07:23:59;98740.63;;;10.83;67.46
21236;BME280;10775;42.678;26.324;2023-04-10T07:26:24;98747.00;;;10.70;72.27
21236;BME280;10775;42.678;26.324;2023-04-10T07:28:50;98751.22;;;10.77;82.33
21236;BME280;10775;42.678;26.324;2023-04-10T07:31:15;98758.00;;;10.86;76.98
21236;BME280;10775;42.678;26.324;2023-04-10T07:33:43;98755.59;;;10.75;76.05
21236;BME280;10775;42.678;26.324;2023-04-10T07:36:09;98755.47;;;10.83;78.72
21236;BME280;10775;42.678;26.324;2023-04-10T07:38:35;98762.56;;;11.20;86.70
21236;BME280;10775;42.678;26.324;2023-04-10T07:41:00;98755.03;;;11.45;87.03
21236;BME280;10775;42.678;26.324;2023-04-10T07:43:26;98760.00;;;11.57;79.79
21236;BME280;10775;42.678;26.324;2023-04-10T07:45:51;98748.41;;;11.30;76.59
21236;BME280;10775;42.678;26.324;2023-04-10T07:48:17;98755.44;;;11.26;75.17
21236;BME280;10775;42.678;26.324;2023-04-10T07:50:42;98765.78;;;11.32;78.63
21236;BME280;10775;42.678;26.324;2023-04-10T07:53:08;98759.84;;;11.24;71.12
21236;BME280;10775;42.678;26.324;2023-04-10T07:55:37;98758.59;;;11.00;69.06
21236;BME280;10775;42.678;26.324;2023-04-10T07:58:03;98749.19;;;11.34;77.35
21236;BME280;10775;42.678;26.324;2023-04-10T08:00:28;98763.19;;;11.70;84.39
21236;BME280;10775;42.678;26.324;2023-04-10T08:02:54;98755.03;;;11.45;78.49
21236;BME280;10775;42.678;26.324;2023-04-10T08:05:19;98756.75;;;11.46;71.06
21236;BME280;10775;42.678;26.324;2023-04-10T08:07:45;98751.84;;;11.69;86.91
21236;BME280;10775;42.678;26.324;2023-04-10T08:10:11;98746.53;;;11.74;77.93
21236;BME280;10775;42.678;26.324;2023-04-10T08:12:36;98744.16;;;12.01;81.76
21236;BME280;10775;42.678;26.324;2023-04-10T08:15:02;98750.59;;;12.22;82.13
21236;BME280;10775;42.678;26.324;2023-04-10T08:17:27;98749.13;;;12.46;87.59
21236;BME280;10775;42.678;26.324;2023-04-10T08:19:53;98739.41;;;12.49;78.28
21236;BME280;10775;42.678;26.324;2023-04-10T08:22:18;98742.81;;;11.83;71.98
21236;BME280;10775;42.678;26.324;2023-04-10T08:24:43;98737.88;;;12.08;77.33
21236;BME280;10775;42.678;26.324;2023-04-10T08:27:09;98735.53;;;11.97;72.07
21236;BME280;10775;42.678;26.324;2023-04-10T08:29:34;98743.22;;;12.03;83.66
21236;BME280;10775;42.678;26.324;2023-04-10T08:32:00;98748.88;;;12.22;79.20
21236;BME280;10775;42.678;26.324;2023-04-10T08:34:26;98745.53;;;12.15;71.84
21236;BME280;10775;42.678;26.324;2023-04-10T08:36:53;98744.94;;;12.38;83.40
21236;BME280;10775;42.678;26.324;2023-04-10T08:39:18;98740.41;;;12.45;82.99
21236;BME280;10775;42.678;26.324;2023-04-10T08:41:43;98745.16;;;12.29;81.73
21236;BME280;10775;42.678;26.324;2023-04-10T08:44:09;98740.06;;;12.25;81.66
21236;BME280;10775;42.678;26.324;2023-04-10T08:46:35;98735.09;;;11.77;75.74
21236;BME280;10775;42.678;26.324;2023-04-10T08:49:04;98743.50;;;11.53;71.81
21236;BME280;10775;42.678;26.324;2023-04-10T08:51:38;98742.47;;;10.78;71.57
21236;BME280;10775;42.678;26.324;2023-04-10T08:54:07;98741.06;;;10.60;72.39
21236;BME280;10775;42.678;26.324;2023-04-10T08:56:36;98739.69;;;10.86;76.46
21236;BME280;10775;42.678;26.324;2023-04-10T08:59:04;98736.28;;;10.84;74.53
21236;BME280;10775;42.678;26.324;2023-04-10T09:01:29;98735.69;;;10.68;72.96
21236;BME280;10775;42.678;26.324;2023-04-10T09:03:56;98722.75;;;10.63;72.97
21236;BME280;10775;42.678;26.324;2023-04-10T09:06:22;98725.75;;;10.87;75.47
21236;BME280;10775;42.678;26.324;2023-04-10T09:08:47;98726.91;;;10.72;73.73
21236;BME280;10775;42.678;26.324;2023-04-10T09:11:13;98722.53;;;10.74;73.84
21236;BME280;10775;42.678;26.324;2023-04-10T09:13:42;98724.38;;;10.69;73.32
21236;BME280;10775;42.678;26.324;2023-04-10T09:16:12;98719.69;;;10.85;77.03
21236;BME280;10775;42.678;26.324;2023-04-10T09:18:50;98716.84;;;10.96;74.81
21236;BME280;10775;42.678;26.324;2023-04-10T09:21:20;98707.69;;;10.73;73.50
21236;BME280;10775;42.678;26.324;2023-04-10T09:23:46;98708.59;;;10.72;73.95
21236;BME280;10775;42.678;26.324;2023-04-10T09:26:29;98706.34;;;10.97;76.55
21236;BME280;10775;42.678;26.324;2023-04-10T09:31:33;98696.38;;;10.74;74.05
21236;BME280;10775;42.678;26.324;2023-04-10T09:36:36;98686.63;;;10.81;72.75
21236;BME280;10775;42.678;26.324;2023-04-10T09:39:03;98686.75;;;10.75;72.96
21236;BME280;10775;42.678;26.324;2023-04-10T09:41:30;98681.19;;;10.92;75.10
21236;BME280;10775;42.678;26.324;2023-04-10T09:46:31;98676.16;;;11.21;76.70
21236;BME280;10775;42.678;26.324;2023-04-10T09:48:57;98677.00;;;11.23;72.90
21236;BME280;10775;42.678;26.324;2023-04-10T09:51:29;98680.88;;;11.05;69.82
21236;BME280;10775;42.678;26.324;2023-04-10T09:53:54;98673.00;;;11.07;69.07
21236;BME280;10775;42.678;26.324;2023-04-10T09:56:21;98673.19;;;10.98;69.46
21236;BME280;10775;42.678;26.324;2023-04-10T09:58:48;98672.38;;;10.96;69.10
21236;BME280;10775;42.678;26.324;2023-04-10T10:01:14;98673.19;;;10.99;68.77
21236;BME280;10775;42.678;26.324;2023-04-10T10:03:40;98668.66;;;11.06;68.43
21236;BME280;10775;42.678;26.324;2023-04-10T10:06:06;98671.97;;;11.14;68.28
21236;BME280;10775;42.678;26.324;2023-04-10T10:08:32;98677.94;;;11.21;69.10
21236;BME280;10775;42.678;26.324;2023-04-10T10:10:59;98664.59;;;11.31;69.33
21236;BME280;10775;42.678;26.324;2023-04-10T10:13:34;98661.31;;;11.22;68.07
21236;BME280;10775;42.678;26.324;2023-04-10T10:21:51;98656.41;;;11.08;68.26
21236;BME280;10775;42.678;26.324;2023-04-10T10:24:19;98658.16;;;11.07;68.13
21236;BME280;10775;42.678;26.324;2023-04-10T10:26:46;98663.19;;;11.17;69.76
21236;BME280;10775;42.678;26.324;2023-04-10T10:29:14;98659.53;;;11.24;68.20
21236;BME280;10775;42.678;26.324;2023-04-10T10:31:40;98644.41;;;11.37;68.21
21236;BME280;10775;42.678;26.324;2023-04-10T10:34:07;98648.00;;;11.32;67.66
21236;BME280;10775;42.678;26.324;2023-04-10T10:36:37;98646.91;;;11.43;68.61
21236;BME280;10775;42.678;26.324;2023-04-10T10:45:36;98635.59;;;11.41;68.96
21236;BME280;10775;42.678;26.324;2023-04-10T10:47:29;98630.94;;;11.52;66.40
21236;BME280;10775;42.678;26.324;2023-04-10T10:50:01;98626.44;;;11.59;67.08
21236;BME280;10775;42.678;26.324;2023-04-10T10:52:49;98621.41;;;11.49;66.57
21236;BME280;10775;42.678;26.324;2023-04-10T10:57:50;98612.84;;;12.11;72.86
21236;BME280;10775;42.678;26.324;2023-04-10T11:00:16;98608.38;;;11.81;66.71
21236;BME280;10775;42.678;26.324;2023-04-10T11:02:42;98605.28;;;11.66;67.02
21236;BME280;10775;42.678;26.324;2023-04-10T11:05:08;98604.47;;;11.64;67.38
21236;BME280;10775;42.678;26.324;2023-04-10T11:13:24;98592.28;;;12.29;80.54
21236;BME280;10775;42.678;26.324;2023-04-10T11:15:57;98595.09;;;12.23;72.36
21236;BME280;10775;42.678;26.324;2023-04-10T11:21:15;98596.03;;;12.50;69.69
21236;BME280;10775;42.678;26.324;2023-04-10T11:26:35;98597.69;;;12.83;78.09
21236;BME280;10775;42.678;26.324;2023-04-10T11:29:04;98596.88;;;12.81;73.45
21236;BME280;10775;42.678;26.324;2023-04-10T11:31:31;98591.03;;;12.42;66.11
21236;BME280;10775;42.678;26.324;2023-04-10T11:34:03;98583.44;;;12.62;68.57
21236;BME280;10775;42.678;26.324;2023-04-10T11:36:31;98584.34;;;12.91;85.64
21236;BME280;10775;42.678;26.324;2023-04-10T11:39:00;98589.50;;;13.21;88.71
21236;BME280;10775;42.678;26.324;2023-04-10T11:41:31;98588.22;;;13.34;86.32
21236;BME280;10775;42.678;26.324;2023-04-10T11:43:59;98587.00;;;13.18;86.83
21236;BME280;10775;42.678;26.324;2023-04-10T11:46:26;98575.03;;;12.81;67.00
21236;BME280;10775;42.678;26.324;2023-04-10T11:49:02;98568.03;;;12.80;72.85
21236;BME280;10775;42.678;26.324;2023-04-10T11:51:28;98576.69;;;13.12;86.15
21236;BME280;10775;42.678;26.324;2023-04-10T11:54:11;98567.28;;;13.04;81.33
21236;BME280;10775;42.678;26.324;2023-04-10T11:56:38;98568.47;;;12.66;66.97
21236;BME280;10775;42.678;26.324;2023-04-10T11:59:05;98575.00;;;12.53;64.59
21236;BME280;10775;42.678;26.324;2023-04-10T12:01:44;98565.00;;;12.36;63.67
21236;BME280;10775;42.678;26.324;2023-04-10T12:04:19;98569.38;;;12.35;63.38
21236;BME280;10775;42.678;26.324;2023-04-10T12:06:47;98561.06;;;12.51;71.90
21236;BME280;10775;42.678;26.324;2023-04-10T12:09:15;98549.41;;;12.61;66.95
21236;BME280;10775;42.678;26.324;2023-04-10T12:12:03;98560.38;;;12.74;68.78
21236;BME280;10775;42.678;26.324;2023-04-10T12:14:33;98557.03;;;12.69;68.11
21236;BME280;10775;42.678;26.324;2023-04-10T12:17:02;98547.88;;;12.82;66.48
21236;BME280;10775;42.678;26.324;2023-04-10T12:19:28;98549.78;;;12.47;59.81
21236;BME280;10775;42.678;26.324;2023-04-10T12:21:55;98563.22;;;12.36;60.44
21236;BME280;10775;42.678;26.324;2023-04-10T12:24:43;98559.84;;;12.33;60.58
21236;BME280;10775;42.678;26.324;2023-04-10T12:27:25;98559.75;;;12.36;62.83
21236;BME280;10775;42.678;26.324;2023-04-10T12:29:53;98552.13;;;12.27;59.72
21236;BME280;10775;42.678;26.324;2023-04-10T12:32:19;98550.72;;;12.46;62.75
21236;BME280;10775;42.678;26.324;2023-04-10T12:34:53;98556.41;;;12.31;61.30
21236;BME280;10775;42.678;26.324;2023-04-10T12:37:21;98550.25;;;12.32;61.77
21236;BME280;10775;42.678;26.324;2023-04-10T12:39:47;98556.38;;;12.32;64.54
21236;BME280;10775;42.678;26.324;2023-04-10T12:44:53;98552.16;;;12.56;76.72
21236;BME280;10775;42.678;26.324;2023-04-10T12:47:18;98543.22;;;12.64;72.80
21236;BME280;10775;42.678;26.324;2023-04-10T12:50:10;98545.88;;;12.62;69.35
21236;BME280;10775;42.678;26.324;2023-04-10T12:52:40;98537.59;;;12.76;76.75
21236;BME280;10775;42.678;26.324;2023-04-10T12:55:16;98544.78;;;12.69;68.36
21236;BME280;10775;42.678;26.324;2023-04-10T12:57:43;98544.81;;;12.68;73.42
21236;BME280;10775;42.678;26.324;2023-04-10T13:00:11;98543.63;;;12.78;77.78
21236;BME280;10775;42.678;26.324;2023-04-10T13:02:38;98547.28;;;12.72;74.80
21236;BME280;10775;42.678;26.324;2023-04-10T13:05:04;98547.03;;;12.52;74.09
21236;BME280;10775;42.678;26.324;2023-04-10T13:07:30;98553.69;;;12.34;68.51
21236;BME280;10775;42.678;26.324;2023-04-10T13:09:57;98545.72;;;12.37;75.97
21236;BME280;10775;42.678;26.324;2023-04-10T13:12:22;98537.63;;;12.74;92.45
21236;BME280;10775;42.678;26.324;2023-04-10T13:14:49;98551.00;;;13.21;91.64
21236;BME280;10775;42.678;26.324;2023-04-10T13:17:15;98542.25;;;13.21;89.18
21236;BME280;10775;42.678;26.324;2023-04-10T13:19:40;98542.84;;;13.02;90.31
21236;BME280;10775;42.678;26.324;2023-04-10T13:22:06;98546.81;;;13.16;90.32
21236;BME280;10775;42.678;26.324;2023-04-10T13:24:31;98543.19;;;13.20;91.56
21236;BME280;10775;42.678;26.324;2023-04-10T13:26:57;98537.22;;;13.41;89.87
21236;BME280;10775;42.678;26.324;2023-04-10T13:29:25;98532.16;;;13.62;92.33
21236;BME280;10775;42.678;26.324;2023-04-10T13:31:51;98531.34;;;13.60;84.25
21236;BME280;10775;42.678;26.324;2023-04-10T13:34:16;98528.25;;;13.74;89.31
21236;BME280;10775;42.678;26.324;2023-04-10T13:36:42;98520.38;;;13.74;89.60
21236;BME280;10775;42.678;26.324;2023-04-10T13:39:07;98521.38;;;13.69;92.27
21236;BME280;10775;42.678;26.324;2023-04-10T13:41:33;98520.97;;;13.57;88.49
21236;BME280;10775;42.678;26.324;2023-04-10T13:43:58;98520.75;;;13.63;92.58
21236;BME280;10775;42.678;26.324;2023-04-10T13:46:24;98525.09;;;13.64;91.57
21236;BME280;10775;42.678;26.324;2023-04-10T13:48:50;98514.59;;;13.64;93.31